sensor_id;sensor_type;location;lat;lon;timestamp;pressure;altitude;pressure_sealevel;temperature;humidity
59073;BME280;44859;51.934;15.554;2023-01-16T00:00:21;98483.83;;;1.41;79.89
59073;BME280;44859;51.934;15.554;2023-01-16T00:04:12;98480.39;;;1.36;80.07
59073;BME280;44859;51.934;15.554;2023-01-16T00:07:46;98480.41;;;1.30;80.35
59073;BME280;44859;51.934;15.554;2023-01-16T00:14:38;98483.16;;;1.19;80.63
59073;BME280;44859;51.934;15.554;2023-01-16T00:17:48;98480.48;;;1.16;80.69
59073;BME280;44859;51.934;15.554;2023-01-16T00:20:50;98479.84;;;1.15;80.96
59073;BME280;44859;51.934;15.554;2023-01-16T00:23:50;98478.83;;;1.14;81.08
59073;BME280;44859;51.934;15.554;2023-01-16T00:27:01;98473.17;;;1.12;81.19
59073;BME280;44859;51.934;15.554;2023-01-16T00:29:51;98473.21;;;1.11;81.33
59073;BME280;44859;51.934;15.554;2023-01-16T00:32:29;98469.95;;;1.10;81.54
59073;BME280;44859;51.934;15.554;2023-01-16T00:35:23;98463.95;;;1.08;81.35
59073;BME280;44859;51.934;15.554;2023-01-16T00:38:06;98465.92;;;1.06;81.41
59073;BME280;44859;51.934;15.554;2023-01-16T00:40:40;98463.34;;;1.06;81.50
59073;BME280;44859;51.934;15.554;2023-01-16T00:43:31;98459.88;;;1.06;81.61
59073;BME280;44859;51.934;15.554;2023-01-16T00:49:44;98461.65;;;1.05;81.94
59073;BME280;44859;51.934;15.554;2023-01-16T00:52:19;98458.55;;;1.04;81.92
59073;BME280;44859;51.934;15.554;2023-01-16T00:54:57;98463.77;;;1.04;82.03
59073;BME280;44859;51.934;15.554;2023-01-16T00:57:44;98465.66;;;1.03;82.03
59073;BME280;44859;51.934;15.554;2023-01-16T01:00:13;98466.20;;;1.03;82.32
59073;BME280;44859;51.934;15.554;2023-01-16T01:02:42;98463.80;;;1.02;82.30
59073;BME280;44859;51.934;15.554;2023-01-16T01:05:17;98460.86;;;1.02;82.36
59073;BME280;44859;51.934;15.554;2023-01-16T01:07:51;98458.42;;;1.03;82.42
59073;BME280;44859;51.934;15.554;2023-01-16T01:10:31;98460.63;;;1.04;82.54
59073;BME280;44859;51.934;15.554;2023-01-16T01:13:06;98457.86;;;1.05;82.52
59073;BME280;44859;51.934;15.554;2023-01-16T01:15:35;98453.67;;;1.05;82.53
59073;BME280;44859;51.934;15.554;2023-01-16T01:18:08;98448.59;;;1.07;82.59
59073;BME280;44859;51.934;15.554;2023-01-16T01:20:43;98448.39;;;1.08;82.47
59073;BME280;44859;51.934;15.554;2023-01-16T01:23:28;98444.51;;;1.11;82.71
59073;BME280;44859;51.934;15.554;2023-01-16T01:26:36;98450.58;;;1.10;82.62
59073;BME280;44859;51.934;15.554;2023-01-16T01:29:23;98438.14;;;1.10;82.64
59073;BME280;44859;51.934;15.554;2023-01-16T01:37:04;98434.70;;;1.09;82.97
59073;BME280;44859;51.934;15.554;2023-01-16T01:42:58;98435.84;;;1.12;83.06
59073;BME280;44859;51.934;15.554;2023-01-16T01:54:25;98426.94;;;1.09;83.49
59073;BME280;44859;51.934;15.554;2023-01-16T01:58:01;98424.73;;;1.07;83.39
59073;BME280;44859;51.934;15.554;2023-01-16T02:01:18;98423.45;;;1.10;83.66
59073;BME280;44859;51.934;15.554;2023-01-16T02:04:00;98423.38;;;1.12;83.51
59073;BME280;44859;51.934;15.554;2023-01-16T02:07:08;98425.44;;;1.13;83.69
59073;BME280;44859;51.934;15.554;2023-01-16T02:10:31;98426.94;;;1.14;83.66
59073;BME280;44859;51.934;15.554;2023-01-16T02:13:38;98424.15;;;1.15;83.62
59073;BME280;44859;51.934;15.554;2023-01-16T02:20:29;98416.95;;;1.18;83.59
59073;BME280;44859;51.934;15.554;2023-01-16T02:37:20;98409.23;;;1.22;83.91
59073;BME280;44859;51.934;15.554;2023-01-16T02:47:50;98402.41;;;1.30;83.99
59073;BME280;44859;51.934;15.554;2023-01-16T02:57:01;98390.45;;;1.35;83.77
59073;BME280;44859;51.934;15.554;2023-01-16T02:59:45;98385.75;;;1.36;83.96
59073;BME280;44859;51.934;15.554;2023-01-16T03:02:22;98383.73;;;1.40;83.67
59073;BME280;44859;51.934;15.554;2023-01-16T03:05:25;98386.27;;;1.41;83.67
59073;BME280;44859;51.934;15.554;2023-01-16T03:11:24;98373.99;;;1.36;83.85
59073;BME280;44859;51.934;15.554;2023-01-16T03:17:16;98372.51;;;1.29;83.93
59073;BME280;44859;51.934;15.554;2023-01-16T03:20:22;98372.61;;;1.25;83.95
59073;BME280;44859;51.934;15.554;2023-01-16T03:23:35;98376.55;;;1.21;84.06
59073;BME280;44859;51.934;15.554;2023-01-16T03:26:36;98374.41;;;1.19;84.13
59073;BME280;44859;51.934;15.554;2023-01-16T03:32:46;98365.73;;;1.14;84.51
59073;BME280;44859;51.934;15.554;2023-01-16T03:35:57;98362.89;;;1.11;84.42
59073;BME280;44859;51.934;15.554;2023-01-16T03:38:37;98353.08;;;1.10;84.44
59073;BME280;44859;51.934;15.554;2023-01-16T03:41:21;98352.28;;;1.08;84.61
59073;BME280;44859;51.934;15.554;2023-01-16T03:44:21;98349.19;;;1.07;84.59
59073;BME280;44859;51.934;15.554;2023-01-16T03:47:12;98351.77;;;1.07;84.71
59073;BME280;44859;51.934;15.554;2023-01-16T03:49:50;98352.49;;;1.06;84.93
59073;BME280;44859;51.934;15.554;2023-01-16T03:52:51;98352.52;;;1.05;84.88
59073;BME280;44859;51.934;15.554;2023-01-16T03:55:33;98347.05;;;1.04;84.93
59073;BME280;44859;51.934;15.554;2023-01-16T04:02:49;98347.01;;;0.95;85.16
59073;BME280;44859;51.934;15.554;2023-01-16T04:06:19;98347.54;;;0.89;85.40
59073;BME280;44859;51.934;15.554;2023-01-16T04:09:10;98344.54;;;0.85;85.40
59073;BME280;44859;51.934;15.554;2023-01-16T04:12:37;98342.29;;;0.86;85.63
59073;BME280;44859;51.934;15.554;2023-01-16T04:15:58;98345.92;;;0.86;85.74
59073;BME280;44859;51.934;15.554;2023-01-16T04:18:40;98338.20;;;0.84;85.96
59073;BME280;44859;51.934;15.554;2023-01-16T04:21:48;98336.86;;;0.83;85.95
59073;BME280;44859;51.934;15.554;2023-01-16T04:29:14;98326.08;;;0.79;85.88
59073;BME280;44859;51.934;15.554;2023-01-16T04:32:24;98319.77;;;0.77;86.13
59073;BME280;44859;51.934;15.554;2023-01-16T04:35:39;98316.98;;;0.77;86.23
59073;BME280;44859;51.934;15.554;2023-01-16T04:39:47;98311.16;;;0.76;86.52
59073;BME280;44859;51.934;15.554;2023-01-16T04:43:37;98308.43;;;0.74;86.60
59073;BME280;44859;51.934;15.554;2023-01-16T04:46:24;98306.36;;;0.74;86.40
59073;BME280;44859;51.934;15.554;2023-01-16T04:49:09;98305.61;;;0.71;86.69
59073;BME280;44859;51.934;15.554;2023-01-16T04:52:03;98302.45;;;0.67;86.72
59073;BME280;44859;51.934;15.554;2023-01-16T04:54:46;98299.61;;;0.64;86.74
59073;BME280;44859;51.934;15.554;2023-01-16T04:57:22;98292.80;;;0.61;87.00
59073;BME280;44859;51.934;15.554;2023-01-16T05:00:30;98287.70;;;0.58;87.13
59073;BME280;44859;51.934;15.554;2023-01-16T05:03:18;98286.25;;;0.55;86.98
59073;BME280;44859;51.934;15.554;2023-01-16T05:06:08;98286.69;;;0.52;87.12
59073;BME280;44859;51.934;15.554;2023-01-16T05:09:18;98281.24;;;0.50;87.11
59073;BME280;44859;51.934;15.554;2023-01-16T05:11:53;98281.31;;;0.47;87.38
59073;BME280;44859;51.934;15.554;2023-01-16T05:14:29;98279.10;;;0.46;87.44
59073;BME280;44859;51.934;15.554;2023-01-16T05:17:24;98275.51;;;0.45;87.68
59073;BME280;44859;51.934;15.554;2023-01-16T05:20:39;98273.94;;;0.46;87.62
59073;BME280;44859;51.934;15.554;2023-01-16T05:23:19;98271.48;;;0.47;87.53
59073;BME280;44859;51.934;15.554;2023-01-16T05:25:55;98270.45;;;0.47;87.75
59073;BME280;44859;51.934;15.554;2023-01-16T05:28:39;98269.39;;;0.48;87.79
59073;BME280;44859;51.934;15.554;2023-01-16T05:31:16;98264.91;;;0.47;87.86
59073;BME280;44859;51.934;15.554;2023-01-16T05:34:21;98254.60;;;0.46;87.81
59073;BME280;44859;51.934;15.554;2023-01-16T05:37:08;98255.38;;;0.43;87.86
59073;BME280;44859;51.934;15.554;2023-01-16T05:39:48;98254.24;;;0.41;88.14
59073;BME280;44859;51.934;15.554;2023-01-16T05:45:49;98252.39;;;0.39;88.19
59073;BME280;44859;51.934;15.554;2023-01-16T05:48:24;98249.13;;;0.39;88.22
59073;BME280;44859;51.934;15.554;2023-01-16T05:51:15;98244.02;;;0.36;88.27
59073;BME280;44859;51.934;15.554;2023-01-16T05:54:17;98242.59;;;0.38;88.53
59073;BME280;44859;51.934;15.554;2023-01-16T05:56:55;98231.37;;;0.38;88.35
59073;BME280;44859;51.934;15.554;2023-01-16T05:59:30;98227.73;;;0.38;88.33
59073;BME280;44859;51.934;15.554;2023-01-16T06:02:17;98219.94;;;0.39;88.55
59073;BME280;44859;51.934;15.554;2023-01-16T06:05:00;98215.89;;;0.41;88.39
59073;BME280;44859;51.934;15.554;2023-01-16T06:07:43;98212.22;;;0.42;88.54
59073;BME280;44859;51.934;15.554;2023-01-16T06:10:36;98210.98;;;0.43;88.39
59073;BME280;44859;51.934;15.554;2023-01-16T06:13:22;98207.48;;;0.45;88.53
59073;BME280;44859;51.934;15.554;2023-01-16T06:16:14;98205.84;;;0.47;88.46
59073;BME280;44859;51.934;15.554;2023-01-16T06:19:14;98208.70;;;0.50;88.38
59073;BME280;44859;51.934;15.554;2023-01-16T06:21:45;98202.66;;;0.49;88.43
59073;BME280;44859;51.934;15.554;2023-01-16T06:24:29;98202.30;;;0.50;88.42
59073;BME280;44859;51.934;15.554;2023-01-16T06:27:01;98200.56;;;0.50;88.57
59073;BME280;44859;51.934;15.554;2023-01-16T06:29:30;98201.09;;;0.50;88.51
59073;BME280;44859;51.934;15.554;2023-01-16T06:31:58;98202.84;;;0.49;88.37
59073;BME280;44859;51.934;15.554;2023-01-16T06:34:29;98197.84;;;0.49;88.42
59073;BME280;44859;51.934;15.554;2023-01-16T06:36:58;98195.43;;;0.49;88.41
59073;BME280;44859;51.934;15.554;2023-01-16T06:39:26;98199.90;;;0.49;88.42
59073;BME280;44859;51.934;15.554;2023-01-16T06:41:55;98197.71;;;0.48;88.45
59073;BME280;44859;51.934;15.554;2023-01-16T06:44:24;98198.64;;;0.46;88.35
59073;BME280;44859;51.934;15.554;2023-01-16T06:46:58;98198.22;;;0.43;88.42
59073;BME280;44859;51.934;15.554;2023-01-16T06:49:27;98193.66;;;0.40;88.55
59073;BME280;44859;51.934;15.554;2023-01-16T06:51:55;98192.91;;;0.36;88.38
59073;BME280;44859;51.934;15.554;2023-01-16T06:54:29;98193.17;;;0.33;88.52
59073;BME280;44859;51.934;15.554;2023-01-16T06:56:58;98193.40;;;0.31;88.77
59073;BME280;44859;51.934;15.554;2023-01-16T06:59:27;98198.67;;;0.28;88.93
59073;BME280;44859;51.934;15.554;2023-01-16T07:01:55;98198.73;;;0.27;88.77
59073;BME280;44859;51.934;15.554;2023-01-16T07:04:26;98195.23;;;0.28;88.82
59073;BME280;44859;51.934;15.554;2023-01-16T07:06:55;98196.73;;;0.30;88.93
59073;BME280;44859;51.934;15.554;2023-01-16T07:09:23;98198.41;;;0.31;89.09
59073;BME280;44859;51.934;15.554;2023-01-16T07:11:57;98198.52;;;0.33;88.87
59073;BME280;44859;51.934;15.554;2023-01-16T07:14:25;98197.75;;;0.36;89.07
59073;BME280;44859;51.934;15.554;2023-01-16T07:17:12;98194.04;;;0.44;89.29
59073;BME280;44859;51.934;15.554;2023-01-16T07:20:00;98185.83;;;0.46;89.10
59073;BME280;44859;51.934;15.554;2023-01-16T07:23:17;98173.77;;;0.45;88.92
59073;BME280;44859;51.934;15.554;2023-01-16T07:25:50;98162.56;;;0.45;88.95
59073;BME280;44859;51.934;15.554;2023-01-16T07:28:29;98155.27;;;0.46;89.03
59073;BME280;44859;51.934;15.554;2023-01-16T07:30:57;98155.09;;;0.46;89.07
59073;BME280;44859;51.934;15.554;2023-01-16T07:33:26;98153.98;;;0.48;89.05
59073;BME280;44859;51.934;15.554;2023-01-16T07:35:55;98157.71;;;0.50;89.00
59073;BME280;44859;51.934;15.554;2023-01-16T07:38:24;98155.28;;;0.51;88.81
59073;BME280;44859;51.934;15.554;2023-01-16T07:41:02;98153.45;;;0.49;88.91
59073;BME280;44859;51.934;15.554;2023-01-16T07:43:31;98148.82;;;0.48;88.95
59073;BME280;44859;51.934;15.554;2023-01-16T07:45:59;98146.24;;;0.47;88.72
59073;BME280;44859;51.934;15.554;2023-01-16T07:48:28;98146.44;;;0.47;89.03
59073;BME280;44859;51.934;15.554;2023-01-16T07:50:58;98145.71;;;0.48;88.62
59073;BME280;44859;51.934;15.554;2023-01-16T07:53:28;98146.25;;;0.47;88.84
59073;BME280;44859;51.934;15.554;2023-01-16T07:56:00;98141.73;;;0.48;88.83
59073;BME280;44859;51.934;15.554;2023-01-16T07:58:32;98135.76;;;0.51;89.07
59073;BME280;44859;51.934;15.554;2023-01-16T08:01:00;98132.21;;;0.53;88.81
59073;BME280;44859;51.934;15.554;2023-01-16T08:03:29;98131.44;;;0.56;88.85
59073;BME280;44859;51.934;15.554;2023-01-16T08:05:58;98132.56;;;0.58;88.71
59073;BME280;44859;51.934;15.554;2023-01-16T08:08:26;98130.58;;;0.61;88.98
59073;BME280;44859;51.934;15.554;2023-01-16T08:10:58;98131.55;;;0.63;88.79
59073;BME280;44859;51.934;15.554;2023-01-16T08:13:27;98126.98;;;0.65;88.61
59073;BME280;44859;51.934;15.554;2023-01-16T08:16:09;98123.07;;;0.68;88.71
59073;BME280;44859;51.934;15.554;2023-01-16T08:18:37;98118.69;;;0.69;88.82
59073;BME280;44859;51.934;15.554;2023-01-16T08:21:06;98116.86;;;0.73;88.50
59073;BME280;44859;51.934;15.554;2023-01-16T08:23:35;98114.70;;;0.76;88.45
59073;BME280;44859;51.934;15.554;2023-01-16T08:26:03;98109.41;;;0.78;88.36
59073;BME280;44859;51.934;15.554;2023-01-16T08:28:32;98113.23;;;0.82;88.50
59073;BME280;44859;51.934;15.554;2023-01-16T08:31:10;98110.98;;;0.87;88.24
59073;BME280;44859;51.934;15.554;2023-01-16T08:33:41;98102.79;;;0.94;88.30
59073;BME280;44859;51.934;15.554;2023-01-16T08:36:14;98096.58;;;1.03;88.26
59073;BME280;44859;51.934;15.554;2023-01-16T08:38:44;98094.67;;;1.12;87.89
59073;BME280;44859;51.934;15.554;2023-01-16T08:41:16;98093.12;;;1.22;87.91
59073;BME280;44859;51.934;15.554;2023-01-16T08:44:04;98087.91;;;1.31;87.67
59073;BME280;44859;51.934;15.554;2023-01-16T08:47:00;98080.37;;;1.38;87.54
59073;BME280;44859;51.934;15.554;2023-01-16T08:49:49;98072.91;;;1.43;87.32
59073;BME280;44859;51.934;15.554;2023-01-16T08:52:36;98070.19;;;1.47;86.92
59073;BME280;44859;51.934;15.554;2023-01-16T08:55:06;98062.61;;;1.46;86.82
59073;BME280;44859;51.934;15.554;2023-01-16T08:57:35;98056.87;;;1.47;86.64
59073;BME280;44859;51.934;15.554;2023-01-16T09:00:15;98049.73;;;1.48;86.63
59073;BME280;44859;51.934;15.554;2023-01-16T09:02:55;98044.20;;;1.48;86.60
59073;BME280;44859;51.934;15.554;2023-01-16T09:05:27;98045.61;;;1.47;86.47
59073;BME280;44859;51.934;15.554;2023-01-16T09:07:58;98042.77;;;1.44;86.19
59073;BME280;44859;51.934;15.554;2023-01-16T09:10:28;98041.31;;;1.42;86.25
59073;BME280;44859;51.934;15.554;2023-01-16T09:13:02;98045.45;;;1.42;86.23
59073;BME280;44859;51.934;15.554;2023-01-16T09:15:54;98042.59;;;1.45;86.13
59073;BME280;44859;51.934;15.554;2023-01-16T09:18:23;98040.59;;;1.47;85.85
59073;BME280;44859;51.934;15.554;2023-01-16T09:20:51;98033.60;;;1.49;85.97
59073;BME280;44859;51.934;15.554;2023-01-16T09:23:20;98020.02;;;1.51;85.88
59073;BME280;44859;51.934;15.554;2023-01-16T09:25:48;98017.19;;;1.53;85.73
59073;BME280;44859;51.934;15.554;2023-01-16T09:28:17;98011.64;;;1.53;85.68
59073;BME280;44859;51.934;15.554;2023-01-16T09:30:45;98010.75;;;1.54;85.56
59073;BME280;44859;51.934;15.554;2023-01-16T09:35:56;98002.41;;;1.55;85.48
59073;BME280;44859;51.934;15.554;2023-01-16T09:38:25;97995.97;;;1.55;85.45
59073;BME280;44859;51.934;15.554;2023-01-16T09:40:57;97990.71;;;1.57;85.40
59073;BME280;44859;51.934;15.554;2023-01-16T09:43:39;97987.73;;;1.62;85.31
59073;BME280;44859;51.934;15.554;2023-01-16T09:46:25;97983.83;;;1.69;85.29
59073;BME280;44859;51.934;15.554;2023-01-16T09:48:59;97972.75;;;1.77;85.18
59073;BME280;44859;51.934;15.554;2023-01-16T09:51:38;97963.41;;;1.85;85.15
59073;BME280;44859;51.934;15.554;2023-01-16T09:54:35;97958.26;;;1.93;85.11
59073;BME280;44859;51.934;15.554;2023-01-16T09:57:28;97952.14;;;2.02;84.69
59073;BME280;44859;51.934;15.554;2023-01-16T10:00:29;97939.09;;;2.11;84.33
59073;BME280;44859;51.934;15.554;2023-01-16T10:03:17;97933.29;;;2.21;84.24
59073;BME280;44859;51.934;15.554;2023-01-16T10:06:02;97929.27;;;2.30;84.01
59073;BME280;44859;51.934;15.554;2023-01-16T10:11:05;97918.98;;;2.46;83.26
59073;BME280;44859;51.934;15.554;2023-01-16T10:13:48;97910.91;;;2.52;83.19
59073;BME280;44859;51.934;15.554;2023-01-16T10:16:33;97907.70;;;2.59;83.00
59073;BME280;44859;51.934;15.554;2023-01-16T10:25:54;97889.29;;;2.81;81.86
59073;BME280;44859;51.934;15.554;2023-01-16T10:31:24;97883.88;;;3.01;81.01
59073;BME280;44859;51.934;15.554;2023-01-16T10:34:10;97881.42;;;3.08;80.86
59073;BME280;44859;51.934;15.554;2023-01-16T10:36:55;97865.48;;;3.15;80.22
59073;BME280;44859;51.934;15.554;2023-01-16T10:39:32;97859.55;;;3.22;79.78
59073;BME280;44859;51.934;15.554;2023-01-16T10:42:17;97852.38;;;3.34;79.25
59073;BME280;44859;51.934;15.554;2023-01-16T10:45:17;97849.31;;;3.43;79.31
59073;BME280;44859;51.934;15.554;2023-01-16T10:48:11;97840.35;;;3.56;78.95
59073;BME280;44859;51.934;15.554;2023-01-16T10:51:03;97836.11;;;3.68;78.42
59073;BME280;44859;51.934;15.554;2023-01-16T10:53:41;97831.67;;;3.76;77.85
59073;BME280;44859;51.934;15.554;2023-01-16T10:56:13;97826.62;;;3.86;77.70
59073;BME280;44859;51.934;15.554;2023-01-16T10:58:46;97818.52;;;3.92;77.76
59073;BME280;44859;51.934;15.554;2023-01-16T11:01:20;97815.26;;;3.94;77.30
59073;BME280;44859;51.934;15.554;2023-01-16T11:03:58;97804.83;;;3.98;76.54
59073;BME280;44859;51.934;15.554;2023-01-16T11:06:30;97796.45;;;4.05;75.60
59073;BME280;44859;51.934;15.554;2023-01-16T11:11:36;97787.23;;;4.18;75.64
59073;BME280;44859;51.934;15.554;2023-01-16T11:14:32;97780.83;;;4.24;75.47
59073;BME280;44859;51.934;15.554;2023-01-16T11:17:36;97772.94;;;4.31;75.09
59073;BME280;44859;51.934;15.554;2023-01-16T11:20:41;97767.86;;;4.35;74.59
59073;BME280;44859;51.934;15.554;2023-01-16T11:25:50;97753.06;;;4.42;73.38
59073;BME280;44859;51.934;15.554;2023-01-16T11:28:25;97747.13;;;4.48;72.38
59073;BME280;44859;51.934;15.554;2023-01-16T11:31:34;97738.16;;;4.50;72.15
59073;BME280;44859;51.934;15.554;2023-01-16T11:34:11;97742.74;;;4.49;72.44
59073;BME280;44859;51.934;15.554;2023-01-16T11:36:40;97735.02;;;4.51;71.89
59073;BME280;44859;51.934;15.554;2023-01-16T11:39:19;97727.77;;;4.56;71.98
59073;BME280;44859;51.934;15.554;2023-01-16T11:41:57;97721.70;;;4.59;71.92
59073;BME280;44859;51.934;15.554;2023-01-16T11:44:29;97721.94;;;4.61;71.61
59073;BME280;44859;51.934;15.554;2023-01-16T11:47:22;97720.50;;;4.68;70.79
59073;BME280;44859;51.934;15.554;2023-01-16T11:49:52;97715.27;;;4.71;70.87
59073;BME280;44859;51.934;15.554;2023-01-16T11:52:22;97707.27;;;4.77;70.65
59073;BME280;44859;51.934;15.554;2023-01-16T11:55:00;97701.61;;;4.81;70.74
59073;BME280;44859;51.934;15.554;2023-01-16T11:58:07;97698.94;;;4.85;71.11
59073;BME280;44859;51.934;15.554;2023-01-16T12:03:34;97687.77;;;4.83;71.29
59073;BME280;44859;51.934;15.554;2023-01-16T12:09:00;97681.96;;;4.81;71.27
59073;BME280;44859;51.934;15.554;2023-01-16T12:12:09;97674.99;;;4.82;71.10
59073;BME280;44859;51.934;15.554;2023-01-16T12:15:01;97668.95;;;4.87;70.68
59073;BME280;44859;51.934;15.554;2023-01-16T12:17:45;97662.35;;;4.87;70.56
59073;BME280;44859;51.934;15.554;2023-01-16T12:26:26;97633.88;;;5.06;69.81
59073;BME280;44859;51.934;15.554;2023-01-16T12:34:45;97614.57;;;5.09;68.91
59073;BME280;44859;51.934;15.554;2023-01-16T12:40:20;97604.65;;;5.18;68.00
59073;BME280;44859;51.934;15.554;2023-01-16T12:46:02;97580.37;;;5.25;67.16
59073;BME280;44859;51.934;15.554;2023-01-16T12:56:58;97555.87;;;5.32;67.32
59073;BME280;44859;51.934;15.554;2023-01-16T12:59:45;97551.37;;;5.35;66.73
59073;BME280;44859;51.934;15.554;2023-01-16T13:05:10;97543.17;;;5.38;66.69
59073;BME280;44859;51.934;15.554;2023-01-16T13:08:17;97532.84;;;5.39;66.59
59073;BME280;44859;51.934;15.554;2023-01-16T13:11:20;97527.89;;;5.37;65.97
59073;BME280;44859;51.934;15.554;2023-01-16T13:14:10;97521.59;;;5.41;65.93
59073;BME280;44859;51.934;15.554;2023-01-16T13:16:44;97517.75;;;5.41;66.26
59073;BME280;44859;51.934;15.554;2023-01-16T13:19:17;97512.09;;;5.31;66.37
59073;BME280;44859;51.934;15.554;2023-01-16T13:25:00;97504.86;;;5.13;67.31
59073;BME280;44859;51.934;15.554;2023-01-16T13:27:40;97501.55;;;5.05;67.95
59073;BME280;44859;51.934;15.554;2023-01-16T13:30:24;97502.45;;;5.01;68.41
59073;BME280;44859;51.934;15.554;2023-01-16T13:33:00;97500.14;;;5.00;68.33
59073;BME280;44859;51.934;15.554;2023-01-16T13:41:26;97480.79;;;4.87;68.53
59073;BME280;44859;51.934;15.554;2023-01-16T13:44:07;97475.10;;;4.86;68.82
59073;BME280;44859;51.934;15.554;2023-01-16T13:47:16;97464.15;;;4.85;68.59
59073;BME280;44859;51.934;15.554;2023-01-16T13:49:55;97462.19;;;4.84;68.78
59073;BME280;44859;51.934;15.554;2023-01-16T13:52:28;97461.86;;;4.83;68.78
59073;BME280;44859;51.934;15.554;2023-01-16T13:54:59;97459.11;;;4.82;68.78
59073;BME280;44859;51.934;15.554;2023-01-16T13:57:30;97452.95;;;4.81;69.13
59073;BME280;44859;51.934;15.554;2023-01-16T14:00:21;97451.16;;;4.79;69.34
59073;BME280;44859;51.934;15.554;2023-01-16T14:03:17;97450.55;;;4.78;69.63
59073;BME280;44859;51.934;15.554;2023-01-16T14:05:49;97448.78;;;4.79;69.59
59073;BME280;44859;51.934;15.554;2023-01-16T14:11:56;97442.89;;;4.95;69.57
59073;BME280;44859;51.934;15.554;2023-01-16T14:14:48;97442.44;;;5.10;69.18
59073;BME280;44859;51.934;15.554;2023-01-16T14:23:23;97422.95;;;5.08;69.08
59073;BME280;44859;51.934;15.554;2023-01-16T14:26:17;97427.83;;;4.94;68.85
59073;BME280;44859;51.934;15.554;2023-01-16T14:28:48;97425.36;;;4.86;69.04
59073;BME280;44859;51.934;15.554;2023-01-16T14:31:41;97417.27;;;4.74;68.82
59073;BME280;44859;51.934;15.554;2023-01-16T14:34:21;97410.49;;;4.65;68.69
59073;BME280;44859;51.934;15.554;2023-01-16T14:37:01;97408.20;;;4.54;68.90
59073;BME280;44859;51.934;15.554;2023-01-16T14:39:37;97406.25;;;4.46;69.12
59073;BME280;44859;51.934;15.554;2023-01-16T14:42:48;97406.14;;;4.37;69.30
59073;BME280;44859;51.934;15.554;2023-01-16T14:45:29;97404.52;;;4.24;69.35
59073;BME280;44859;51.934;15.554;2023-01-16T14:51:34;97398.09;;;4.15;69.35
59073;BME280;44859;51.934;15.554;2023-01-16T14:54:30;97398.14;;;4.11;69.18
59073;BME280;44859;51.934;15.554;2023-01-16T14:57:22;97393.93;;;4.09;69.06
59073;BME280;44859;51.934;15.554;2023-01-16T15:00:07;97396.31;;;4.07;69.22
59073;BME280;44859;51.934;15.554;2023-01-16T15:02:48;97393.88;;;4.05;69.38
59073;BME280;44859;51.934;15.554;2023-01-16T15:05:28;97390.44;;;4.01;69.18
59073;BME280;44859;51.934;15.554;2023-01-16T15:08:24;97391.05;;;4.00;69.35
59073;BME280;44859;51.934;15.554;2023-01-16T15:10:55;97390.63;;;3.94;69.14
59073;BME280;44859;51.934;15.554;2023-01-16T15:13:29;97387.30;;;3.89;69.33
59073;BME280;44859;51.934;15.554;2023-01-16T15:16:21;97384.18;;;3.83;69.51
59073;BME280;44859;51.934;15.554;2023-01-16T15:19:19;97380.37;;;3.77;69.71
59073;BME280;44859;51.934;15.554;2023-01-16T15:22:26;97377.64;;;3.71;69.79
59073;BME280;44859;51.934;15.554;2023-01-16T15:31:24;97367.54;;;3.57;70.32
59073;BME280;44859;51.934;15.554;2023-01-16T15:34:02;97367.02;;;3.54;70.36
59073;BME280;44859;51.934;15.554;2023-01-16T15:36:37;97362.98;;;3.49;70.50
59073;BME280;44859;51.934;15.554;2023-01-16T15:39:58;97355.69;;;3.46;70.71
59073;BME280;44859;51.934;15.554;2023-01-16T15:42:26;97355.54;;;3.45;70.88
59073;BME280;44859;51.934;15.554;2023-01-16T15:45:19;97351.64;;;3.38;70.97
59073;BME280;44859;51.934;15.554;2023-01-16T15:51:11;97352.23;;;3.28;71.53
59073;BME280;44859;51.934;15.554;2023-01-16T15:53:46;97347.23;;;3.24;71.71
59073;BME280;44859;51.934;15.554;2023-01-16T15:56:24;97343.81;;;3.20;71.86
59073;BME280;44859;51.934;15.554;2023-01-16T15:58:53;97340.33;;;3.17;71.99
59073;BME280;44859;51.934;15.554;2023-01-16T16:01:29;97341.27;;;3.13;72.19
59073;BME280;44859;51.934;15.554;2023-01-16T16:04:02;97338.58;;;3.09;72.32
59073;BME280;44859;51.934;15.554;2023-01-16T16:06:32;97334.35;;;3.04;72.58
59073;BME280;44859;51.934;15.554;2023-01-16T16:09:16;97333.95;;;3.02;72.80
59073;BME280;44859;51.934;15.554;2023-01-16T16:11:46;97333.59;;;2.99;72.98
59073;BME280;44859;51.934;15.554;2023-01-16T16:14:29;97335.15;;;2.96;73.18
59073;BME280;44859;51.934;15.554;2023-01-16T16:20:39;97336.34;;;2.86;73.55
59073;BME280;44859;51.934;15.554;2023-01-16T16:26:03;97328.98;;;2.79;73.91
59073;BME280;44859;51.934;15.554;2023-01-16T16:28:34;97318.89;;;2.77;74.11
59073;BME280;44859;51.934;15.554;2023-01-16T16:31:29;97317.08;;;2.72;74.11
59073;BME280;44859;51.934;15.554;2023-01-16T16:34:14;97306.75;;;2.67;74.35
59073;BME280;44859;51.934;15.554;2023-01-16T16:36:46;97304.40;;;2.63;74.71
59073;BME280;44859;51.934;15.554;2023-01-16T16:42:52;97300.91;;;2.54;75.10
59073;BME280;44859;51.934;15.554;2023-01-16T16:45:31;97298.34;;;2.50;75.31
59073;BME280;44859;51.934;15.554;2023-01-16T16:48:20;97294.45;;;2.46;75.43
59073;BME280;44859;51.934;15.554;2023-01-16T16:50:49;97285.81;;;2.42;75.76
59073;BME280;44859;51.934;15.554;2023-01-16T16:53:25;97281.97;;;2.43;75.88
59073;BME280;44859;51.934;15.554;2023-01-16T16:56:07;97276.54;;;2.41;75.95
59073;BME280;44859;51.934;15.554;2023-01-16T16:58:43;97274.94;;;2.39;75.89
59073;BME280;44859;51.934;15.554;2023-01-16T17:01:14;97268.98;;;2.36;76.24
59073;BME280;44859;51.934;15.554;2023-01-16T17:03:44;97261.50;;;2.34;76.35
59073;BME280;44859;51.934;15.554;2023-01-16T17:06:24;97258.20;;;2.31;76.33
59073;BME280;44859;51.934;15.554;2023-01-16T17:08:55;97249.84;;;2.29;76.56
59073;BME280;44859;51.934;15.554;2023-01-16T17:11:25;97242.80;;;2.27;76.88
59073;BME280;44859;51.934;15.554;2023-01-16T17:13:54;97238.70;;;2.26;76.77
59073;BME280;44859;51.934;15.554;2023-01-16T17:16:25;97229.67;;;2.24;76.79
59073;BME280;44859;51.934;15.554;2023-01-16T17:19:11;97226.29;;;2.22;77.04